»·PEaware :: PSV130 KOAK-KSNA

PSV130 :: KOAK-KSNA

FLIGHT INFORMATION

Flight Status: Arrived
Operator:
Power Set Virtual (website)
More flights by this operator :: More flights under this callsign
Pilot: David J. (24489)
Aircraft: BOEING 717-200
(B712)
More flights by this aircraft type
Origin: KOAK Metro Oakland Intl
United States
Destination: KSNA John Wayne-Orange Co
United States
More flights between these airports :: More routes between these airports
Route: +CNDEL4 YYUNG TILLT TILLT2
File this flight plan on PilotEdge
Remarks: RMK / SIMBRIEF
Altitude:
(Current/Filed)
33,000ft
Speed:
(Current/Filed)
455kts
Departed: 30-Nov-20 06:42 PM
Arrived: 30-Nov-20 07:45 PM
Distance/Time
Traveled:
322nm/1:03
Distance/Time
To Go:
Arrived

Flight Plot

Page will automatically refresh every two minutes.

Flight plan parsing failed; only flown route is shown


Map Options




Map Legend


Flown Route
Filed Route
Departure Airport
Arrival Airport
Navaid (VOR, NDB)
Fix

Horizontal Profiles

Position Reports

Time Latitude Longitude Heading Altitude Ground
Speed
30-Nov-20 17:58 37.712566 -122.214510 307 14ft 0kts
30-Nov-20 17:59 37.712566 -122.214510 307 14ft 0kts
30-Nov-20 18:00 37.712566 -122.214510 307 14ft 0kts
30-Nov-20 18:01 37.712566 -122.214510 307 14ft 0kts
30-Nov-20 18:02 37.712566 -122.214510 307 14ft 0kts
30-Nov-20 18:03 37.712566 -122.214510 307 14ft 0kts
30-Nov-20 18:05 37.712566 -122.214510 307 14ft 0kts
30-Nov-20 18:06 37.712566 -122.214510 307 14ft 0kts
30-Nov-20 18:07 37.712566 -122.214510 307 14ft 0kts
30-Nov-20 18:08 37.712566 -122.214510 307 14ft 0kts
30-Nov-20 18:09 37.712566 -122.214510 307 14ft 0kts
30-Nov-20 18:10 37.712566 -122.214510 307 14ft 0kts
30-Nov-20 18:11 37.712566 -122.214510 307 14ft 0kts
30-Nov-20 18:12 37.712566 -122.214510 307 14ft 0kts
30-Nov-20 18:13 37.712566 -122.214510 307 14ft 0kts
30-Nov-20 18:14 37.712566 -122.214510 307 14ft 0kts
30-Nov-20 18:15 37.712566 -122.214510 307 14ft 0kts
30-Nov-20 18:16 37.712566 -122.214510 307 14ft 0kts
30-Nov-20 18:17 37.712566 -122.214510 307 14ft 0kts
30-Nov-20 18:18 37.712566 -122.214510 307 14ft 0kts
30-Nov-20 18:19 37.712566 -122.214510 307 14ft 0kts
30-Nov-20 18:20 37.712566 -122.214510 307 14ft 0kts
30-Nov-20 18:21 37.712566 -122.214510 307 14ft 0kts
30-Nov-20 18:22 37.712408 -122.214167 286 14ft 2kts
30-Nov-20 18:22 37.712586 -122.213600 212 14ft 0kts
30-Nov-20 18:24 37.712586 -122.213600 212 14ft 0kts
30-Nov-20 18:24 37.712585 -122.213600 212 14ft 0kts
30-Nov-20 18:26 37.712585 -122.213601 212 14ft 0kts
30-Nov-20 18:26 37.712584 -122.213601 212 14ft 0kts
30-Nov-20 18:28 37.710970 -122.213808 166 14ft 0kts
30-Nov-20 18:28 37.710970 -122.213808 166 14ft 0kts
30-Nov-20 18:29 37.710969 -122.213808 166 14ft 0kts
30-Nov-20 18:30 37.710968 -122.213807 166 14ft 0kts
30-Nov-20 18:31 37.710968 -122.213807 166 14ft 0kts
30-Nov-20 18:32 37.710967 -122.213807 166 14ft 0kts
30-Nov-20 18:33 37.710966 -122.213807 166 14ft 0kts
30-Nov-20 18:34 37.710965 -122.213806 166 14ft 0kts
30-Nov-20 18:35 37.710850 -122.213785 177 14ft 4kts
30-Nov-20 18:36 37.709551 -122.215244 213 14ft 8kts
30-Nov-20 18:37 37.707892 -122.216747 220 14ft 13kts
30-Nov-20 18:38 37.706093 -122.217289 131 14ft 10kts
30-Nov-20 18:39 37.702729 -122.213385 162 14ft 8kts
30-Nov-20 18:40 37.702481 -122.213524 219 14ft 0kts
30-Nov-20 18:41 37.707856 -122.223885 309 14ft 129kts
30-Nov-20 18:42 37.737853 -122.269950 310 1756ft 193kts
30-Nov-20 18:43 37.772901 -122.321347 311 4662ft 192kts
30-Nov-20 18:44 37.781773 -122.398604 234 6585ft 274kts
30-Nov-20 18:45 37.707267 -122.428904 191 9702ft 301kts
30-Nov-20 18:46 37.614466 -122.448376 191 10819ft 381kts
30-Nov-20 18:47 37.506068 -122.471142 192 13022ft 403kts
30-Nov-20 18:48 37.392979 -122.492591 190 15368ft 418kts
30-Nov-20 18:49 37.276373 -122.514234 190 17522ft 430kts
30-Nov-20 18:50 37.156077 -122.536496 190 19421ft 443kts
30-Nov-20 18:51 37.031836 -122.557171 181 21058ft 458kts
30-Nov-20 18:52 36.914133 -122.496737 147 22561ft 471kts
30-Nov-20 18:53 36.800363 -122.412803 148 23942ft 481kts
30-Nov-20 18:54 36.684004 -122.327700 148 25192ft 489kts
30-Nov-20 18:55 36.565423 -122.241292 148 26342ft 496kts
30-Nov-20 18:56 36.445673 -122.154346 148 27583ft 498kts
30-Nov-20 18:58 36.306389 -122.053608 149 29226ft 496kts
30-Nov-20 18:58 36.206899 -121.981907 149 30433ft 494kts
30-Nov-20 18:59 36.088027 -121.896516 150 31781ft 494kts
30-Nov-20 19:00 35.977087 -121.799034 128 32903ft 495kts
30-Nov-20 19:01 35.893962 -121.664255 127 32961ft 493kts
30-Nov-20 19:02 35.809628 -121.530585 127 32963ft 495kts
30-Nov-20 19:03 35.724899 -121.396690 127 32956ft 497kts
30-Nov-20 19:04 35.640380 -121.263645 128 32935ft 499kts
30-Nov-20 19:05 35.557885 -121.134274 128 32924ft 500kts
30-Nov-20 19:06 35.472353 -121.020228 140 32920ft 501kts
30-Nov-20 19:07 35.367368 -120.907767 140 32914ft 502kts
30-Nov-20 19:08 35.262484 -120.794631 140 32903ft 503kts
30-Nov-20 19:09 35.168239 -120.693338 140 32897ft 505kts
30-Nov-20 19:10 35.082410 -120.601367 140 32895ft 507kts
30-Nov-20 19:11 34.981481 -120.509551 150 32887ft 506kts
30-Nov-20 19:12 34.863789 -120.414712 150 32876ft 508kts
30-Nov-20 19:13 34.754071 -120.326234 150 32882ft 512kts
30-Nov-20 19:14 34.634728 -120.230427 151 32886ft 514kts
30-Nov-20 19:15 34.527763 -120.144971 152 32880ft 518kts
30-Nov-20 19:16 34.407639 -120.049291 150 32853ft 511kts
30-Nov-20 19:17 34.288151 -119.954462 150 31290ft 511kts
30-Nov-20 19:18 34.170685 -119.861561 149 28808ft 501kts
30-Nov-20 19:19 34.060681 -119.759203 124 26127ft 493kts
30-Nov-20 19:20 33.992424 -119.620684 118 23377ft 469kts
30-Nov-20 19:21 33.932732 -119.502308 118 21850ft 419kts
30-Nov-20 19:22 33.873994 -119.384536 117 21059ft 404kts
30-Nov-20 19:23 33.816812 -119.268470 118 19199ft 397kts
30-Nov-20 19:24 33.761264 -119.156104 118 17169ft 387kts
30-Nov-20 19:25 33.707236 -119.047161 118 15320ft 372kts
30-Nov-20 19:26 33.655143 -118.942414 118 13556ft 358kts
30-Nov-20 19:27 33.607991 -118.847863 119 11965ft 350kts
30-Nov-20 19:28 33.566820 -118.745756 100 10420ft 312kts
30-Nov-20 19:29 33.550918 -118.646781 99 10145ft 297kts
30-Nov-20 19:30 33.536263 -118.556280 99 9945ft 300kts
30-Nov-20 19:31 33.527466 -118.502190 99 9163ft 291kts
30-Nov-20 19:32 33.534227 -118.422175 72 6764ft 273kts
30-Nov-20 19:33 33.556492 -118.336343 71 5059ft 266kts
30-Nov-20 19:34 33.578916 -118.251458 71 5019ft 267kts
30-Nov-20 19:35 33.597247 -118.182651 71 5012ft 268kts
30-Nov-20 19:36 33.619912 -118.098096 71 4560ft 265kts
30-Nov-20 19:37 33.642279 -118.014593 70 3391ft 262kts
30-Nov-20 19:38 33.694121 -117.958670 31 2501ft 256kts
30-Nov-20 19:39 33.751223 -117.916379 31 2245ft 228kts
30-Nov-20 19:40 33.793728 -117.877449 61 2156ft 178kts
30-Nov-20 19:41 33.771721 -117.838435 155 1523ft 143kts
30-Nov-20 19:42 33.733310 -117.833276 197 1032ft 142kts
30-Nov-20 19:43 33.697930 -117.854880 211 524ft 143kts
30-Nov-20 19:44 33.670284 -117.872171 190 64ft 28kts
30-Nov-20 19:45 33.669848 -117.870201 36 64ft 14kts
30-Nov-20 19:46 33.672596 -117.867777 29 64ft 10kts
30-Nov-20 19:47 33.675591 -117.865557 29 64ft 8kts
30-Nov-20 19:48 33.677984 -117.863444 109 64ft 5kts
30-Nov-20 19:49 33.677891 -117.863208 117 64ft 0kts
30-Nov-20 19:50 33.677891 -117.863208 117 64ft 0kts
30-Nov-20 19:51 33.677891 -117.863208 117 64ft 0kts
30-Nov-20 19:52 33.677891 -117.863208 117 64ft 0kts
30-Nov-20 19:53 33.677891 -117.863208 117 64ft 0kts
30-Nov-20 19:54 33.677891 -117.863208 117 64ft 0kts
30-Nov-20 19:55 33.677891 -117.863208 117 64ft 0kts

Navigation Log

Ident Type
Flight plan parsing failed, navigation log unavailable